Time;durP1;ratioP1;P1;durP2;ratioP2;P2;SDS_P1;SDS_P2;PMS_P1;PMS_P2;Temp;Humidity;BMP_temperature;BMP_pressure;BME280_temperature;BME280_humidity;BME280_pressure;Samples;Min_cycle;Max_cycle;Signal;HPM_P1;HPM_P2
2022/10/13 00:00:26;;;;;;;;;5.00;5.00;;;;;16.33;86.13;101294.94;4823278;29;45243;-84
2022/10/13 00:02:52;;;;;;;;;7.00;7.00;;;;;16.32;85.90;101303.88;4822344;29;45342;-85
2022/10/13 00:05:18;;;;;;;;;7.00;7.00;;;;;16.38;85.44;101310.16;4806378;29;44837;-84
2022/10/13 00:07:43;;;;;;;;;8.00;7.00;;;;;16.37;85.96;101312.81;4812741;29;47003;-84
2022/10/13 00:10:09;;;;;;;;;8.00;6.33;;;;;16.40;85.31;101308.34;4821389;29;45426;-84
2022/10/13 00:12:37;;;;;;;;;11.00;9.33;;;;;16.40;85.30;101318.16;4822385;29;45406;-84
2022/10/13 00:15:06;;;;;;;;;8.33;8.33;;;;;16.39;85.55;101311.03;4822584;29;44849;-84
2022/10/13 00:17:32;;;;;;;;;10.00;9.33;;;;;16.35;85.51;101310.13;4805173;29;48043;-84
2022/10/13 00:19:58;;;;;;;;;6.67;6.67;;;;;16.32;85.97;101302.09;4805201;29;45478;-84
2022/10/13 00:22:23;;;;;;;;;7.00;7.00;;;;;16.29;86.37;101293.16;4819115;29;44877;-85
2022/10/13 00:24:50;;;;;;;;;9.67;9.67;;;;;16.30;86.28;101302.97;4804588;29;44870;-84
2022/10/13 00:27:16;;;;;;;;;7.00;7.00;;;;;16.21;86.68;101290.47;4820138;29;45959;-84
2022/10/13 00:29:42;;;;;;;;;9.00;6.00;;;;;16.24;86.87;101287.78;4820830;29;45821;-84
2022/10/13 00:32:07;;;;;;;;;5.67;5.67;;;;;16.19;86.86;101266.28;4820067;29;44791;-84
2022/10/13 00:34:33;;;;;;;;;9.33;8.67;;;;;16.21;87.33;101263.63;4805560;29;45464;-84
2022/10/13 00:37:29;;;;;;;;;9.00;9.00;;;;;16.22;87.94;101264.50;4805058;29;46860;-85
2022/10/13 00:39:55;;;;;;;;;10.00;7.33;;;;;16.21;88.55;101269.00;4804180;29;45195;-84
2022/10/13 00:42:22;;;;;;;;;8.67;7.00;;;;;16.25;88.62;101270.78;4817212;29;45529;-84
2022/10/13 00:45:10;;;;;;;;;9.00;9.00;;;;;16.28;89.26;101281.53;4817061;29;44900;-84
2022/10/13 00:47:42;;;;;;;;;8.67;7.67;;;;;16.30;89.51;101273.44;4811918;29;45426;-84
2022/10/13 00:50:15;;;;;;;;;9.67;9.67;;;;;16.32;89.68;101277.94;4818800;29;45184;-84
2022/10/13 00:52:41;;;;;;;;;11.33;11.33;;;;;16.32;90.16;101277.94;4806365;29;45492;-84
2022/10/13 00:55:10;;;;;;;;;15.00;12.67;;;;;16.30;90.39;101284.19;4823490;29;44737;-84
2022/10/13 00:57:38;;;;;;;;;11.33;11.33;;;;;16.25;90.75;101277.94;4822112;29;46381;-85
2022/10/13 01:00:05;;;;;;;;;7.67;7.67;;;;;16.25;91.49;101275.25;4814030;29;44934;-85
2022/10/13 01:02:35;;;;;;;;;8.33;8.00;;;;;16.24;91.68;101278.81;4806927;29;45333;-84
2022/10/13 01:05:02;;;;;;;;;11.33;9.67;;;;;16.21;92.48;101274.34;4822426;29;45495;-84
2022/10/13 01:07:28;;;;;;;;;8.33;8.33;;;;;16.20;91.90;101278.84;4806536;29;46915;-84
2022/10/13 01:09:54;;;;;;;;;8.33;8.00;;;;;16.27;92.32;101293.13;4806718;29;45524;-84
2022/10/13 01:12:38;;;;;;;;;9.67;9.67;;;;;16.26;92.46;101291.38;4824437;29;45368;-84
2022/10/13 01:15:21;;;;;;;;;11.00;11.00;;;;;16.26;92.88;101277.94;4806714;29;45371;-84
2022/10/13 01:18:13;;;;;;;;;12.33;11.33;;;;;16.22;93.01;101262.75;4822787;29;47387;-84
2022/10/13 01:21:00;;;;;;;;;9.00;9.00;;;;;16.22;93.45;101269.88;4806777;29;45500;-84
2022/10/13 01:23:47;;;;;;;;;7.00;7.00;;;;;16.21;93.95;101279.72;4806855;29;45528;-84
2022/10/13 01:26:37;;;;;;;;;10.33;9.00;;;;;16.23;94.17;101271.69;4806707;29;45406;-83
2022/10/13 01:29:39;;;;;;;;;8.33;6.67;;;;;16.18;94.67;101259.16;4807285;29;47842;-84
2022/10/13 01:32:23;;;;;;;;;11.33;10.00;;;;;16.22;94.86;101253.78;4807914;29;44815;-84
2022/10/13 01:35:14;;;;;;;;;8.67;8.67;;;;;16.22;95.02;101264.50;4807102;29;45883;-84
2022/10/13 01:38:06;;;;;;;;;11.50;9.00;;;;;16.17;95.05;101248.41;4798257;29;45332;-84
2022/10/13 01:40:39;;;;;;;;;12.00;11.67;;;;;16.18;94.94;101247.53;4807239;29;47215;-84
2022/10/13 01:43:41;;;;;;;;;9.00;9.00;;;;;16.26;95.46;101260.91;4806064;29;45548;-84
2022/10/13 01:46:16;;;;;;;;;10.33;10.33;;;;;16.27;95.37;101268.97;4806668;29;45904;-84
2022/10/13 01:48:44;;;;;;;;;10.33;10.33;;;;;16.26;96.00;101263.59;4823146;29;45578;-84
2022/10/13 01:51:15;;;;;;;;;7.00;7.00;;;;;16.32;96.65;101261.84;4807548;29;45530;-85
2022/10/13 01:53:42;;;;;;;;;10.00;9.00;;;;;16.28;97.11;101232.28;4822698;29;45425;-84
2022/10/13 01:56:08;;;;;;;;;9.67;9.67;;;;;16.28;97.23;101233.22;4807446;29;44849;-85
2022/10/13 01:58:35;;;;;;;;;11.00;11.00;;;;;16.35;98.22;101250.19;4808497;29;45414;-84
2022/10/13 02:01:31;;;;;;;;;8.67;8.67;;;;;16.35;98.39;101247.50;4824505;29;45347;-84
2022/10/13 02:04:16;;;;;;;;;11.00;10.00;;;;;16.37;98.96;101243.03;4806185;29;45306;-85
2022/10/13 02:07:13;;;;;;;;;9.00;9.00;;;;;16.37;99.00;101246.59;4824047;29;45453;-85
2022/10/13 02:09:49;;;;;;;;;10.00;10.00;;;;;16.39;99.49;101236.75;4810541;29;45382;-84
2022/10/13 02:12:27;;;;;;;;;11.33;11.33;;;;;16.34;99.64;101225.16;4805744;29;47011;-84
2022/10/13 02:14:56;;;;;;;;;8.67;8.67;;;;;16.41;99.93;101239.44;4822408;29;45335;-84
2022/10/13 02:17:22;;;;;;;;;9.33;9.33;;;;;16.43;99.85;101231.38;4823088;29;45652;-84
2022/10/13 02:19:48;;;;;;;;;10.67;9.33;;;;;16.38;100.00;101223.31;4822883;29;44770;-84
2022/10/13 02:22:15;;;;;;;;;9.67;9.67;;;;;16.45;100.00;101233.16;4822042;29;45027;-85
2022/10/13 02:24:40;;;;;;;;;8.00;8.00;;;;;16.45;99.66;101230.47;4823100;29;45347;-84
2022/10/13 02:27:07;;;;;;;;;11.00;9.00;;;;;16.44;100.00;101228.72;4806274;29;45398;-85
2022/10/13 02:29:33;;;;;;;;;10.33;10.33;;;;;16.43;100.00;101216.16;4821652;29;45472;-84
2022/10/13 02:31:59;;;;;;;;;13.33;11.33;;;;;16.40;100.00;101213.47;4813748;29;48127;-84
2022/10/13 02:34:24;;;;;;;;;11.67;9.00;;;;;16.38;100.00;101204.53;4806800;29;45433;-84
2022/10/13 02:36:49;;;;;;;;;11.00;8.00;;;;;16.25;100.00;101162.53;4823364;29;45494;-84
2022/10/13 02:39:16;;;;;;;;;11.67;11.33;;;;;16.37;100.00;101178.59;4807018;29;45579;-85
2022/10/13 02:41:42;;;;;;;;;11.00;11.00;;;;;16.32;100.00;101185.75;4805209;29;46898;-84
2022/10/13 02:44:07;;;;;;;;;10.00;10.00;;;;;16.29;100.00;101175.03;4821890;29;45391;-84
2022/10/13 02:46:33;;;;;;;;;8.67;8.67;;;;;16.32;100.00;101175.94;4823671;29;44735;-84
2022/10/13 02:48:59;;;;;;;;;14.00;11.67;;;;;16.35;100.00;101183.97;4806766;29;45334;-84
2022/10/13 02:51:24;;;;;;;;;11.67;11.67;;;;;16.39;100.00;101192.91;4806691;29;47045;-84
2022/10/13 02:53:56;;;;;;;;;9.67;9.00;;;;;16.42;100.00;101197.38;4823162;29;44711;-84
2022/10/13 02:56:22;;;;;;;;;14.00;12.00;;;;;16.41;100.00;101196.47;4806845;29;44833;-84
2022/10/13 02:58:47;;;;;;;;;11.00;9.67;;;;;16.39;100.00;101192.91;4817843;29;45386;-84
2022/10/13 03:01:14;;;;;;;;;10.67;10.67;;;;;16.40;100.00;101202.75;4806711;29;46806;-84
2022/10/13 03:03:40;;;;;;;;;11.00;11.00;;;;;16.38;100.00;101192.03;4806917;29;45488;-84
2022/10/13 03:06:06;;;;;;;;;11.00;11.00;;;;;16.40;100.00;101194.69;4837172;29;45446;-83
2022/10/13 03:08:33;;;;;;;;;10.00;9.00;;;;;16.40;100.00;101189.31;4837612;29;44963;-84
2022/10/13 03:10:59;;;;;;;;;12.67;11.00;;;;;16.37;100.00;101189.34;4837237;29;47344;-84
2022/10/13 03:13:25;;;;;;;;;12.00;9.00;;;;;16.34;100.00;101181.28;4836907;29;45462;-84
2022/10/13 03:15:50;;;;;;;;;11.00;11.00;;;;;16.34;100.00;101178.59;4804723;29;45497;-84
2022/10/13 03:18:16;;;;;;;;;11.00;9.00;;;;;16.32;100.00;101166.97;4837506;29;44807;-84
2022/10/13 03:20:41;;;;;;;;;14.00;12.33;;;;;16.31;100.00;101173.25;4806870;29;46789;-85
2022/10/13 03:23:08;;;;;;;;;9.00;9.00;;;;;16.27;100.00;101158.94;4822449;29;45390;-84
2022/10/13 03:25:34;;;;;;;;;10.00;9.33;;;;;16.25;100.00;101158.06;4817328;29;45420;-85
2022/10/13 03:28:00;;;;;;;;;9.00;9.00;;;;;16.27;100.00;101168.78;4806871;29;45390;-84
2022/10/13 03:30:26;;;;;;;;;9.00;7.67;;;;;16.27;100.00;101160.75;4818703;29;46835;-84
2022/10/13 03:32:58;;;;;;;;;12.00;11.67;;;;;16.30;100.00;101171.44;4806758;29;45431;-84
2022/10/13 03:35:24;;;;;;;;;12.33;11.00;;;;;16.27;100.00;101158.06;4821755;29;44724;-84
2022/10/13 03:37:49;;;;;;;;;16.33;12.00;;;;;16.26;100.00;101149.13;4823488;29;45318;-84
2022/10/13 03:40:15;;;;;;;;;15.33;12.00;;;;;16.21;100.00;101137.50;4807681;29;46732;-84
2022/10/13 03:42:40;;;;;;;;;10.67;10.67;;;;;16.25;100.00;101136.59;4807137;29;44716;-84
2022/10/13 03:45:06;;;;;;;;;8.33;8.33;;;;;16.22;100.00;101124.94;4806748;29;45530;-84
2022/10/13 03:47:34;;;;;;;;;12.00;12.00;;;;;16.20;100.00;101135.72;4806245;29;45308;-84
2022/10/13 03:50:00;;;;;;;;;13.00;13.00;;;;;16.23;100.00;101133.00;4824127;29;45460;-84
2022/10/13 03:52:25;;;;;;;;;11.00;10.67;;;;;16.22;100.00;101135.69;4822601;29;44892;-84
2022/10/13 03:54:51;;;;;;;;;16.67;15.33;;;;;16.19;100.00;101126.75;4807457;29;45414;-84
2022/10/13 03:57:16;;;;;;;;;10.67;10.00;;;;;16.18;100.00;101126.78;4822526;29;45342;-84
2022/10/13 03:59:41;;;;;;;;;6.00;4.00;;;;;16.18;100.00;101140.19;4824062;29;45430;-85
2022/10/13 04:02:10;;;;;;;;;9.33;9.33;;;;;16.15;100.00;101138.38;4824500;29;45373;-83
2022/10/13 04:04:36;;;;;;;;;12.00;9.00;;;;;16.15;100.00;101124.09;4823501;29;44773;-84
2022/10/13 04:07:02;;;;;;;;;11.00;9.67;;;;;16.11;100.00;101125.88;4807259;29;45379;-85
2022/10/13 04:09:27;;;;;;;;;7.00;7.00;;;;;16.10;100.00;101121.44;4820084;29;46988;-84
2022/10/13 04:11:53;;;;;;;;;14.00;13.00;;;;;16.08;100.00;101133.03;4823522;29;44792;-84
2022/10/13 04:14:19;;;;;;;;;7.33;7.33;;;;;16.05;100.00;101127.69;4812742;29;44743;-84
2022/10/13 04:16:45;;;;;;;;;16.33;11.33;;;;;16.10;100.00;101142.91;4820258;29;45328;-84
2022/10/13 04:19:13;;;;;;;;;13.00;12.67;;;;;16.07;100.00;101136.63;4822847;29;45812;-84
2022/10/13 04:21:39;;;;;;;;;11.33;9.00;;;;;16.08;100.00;101128.59;4809075;29;44832;-84
2022/10/13 04:24:05;;;;;;;;;13.00;12.33;;;;;16.08;100.00;101136.63;4806601;29;45823;-85
2022/10/13 04:26:33;;;;;;;;;15.67;14.00;;;;;16.05;100.00;101133.94;4813610;29;45424;-85
2022/10/13 04:29:02;;;;;;;;;12.00;11.67;;;;;16.04;100.00;101137.53;4823688;29;45367;-85
2022/10/13 04:31:29;;;;;;;;;13.00;11.33;;;;;16.09;100.00;101151.81;4808319;29;45601;-84
2022/10/13 04:33:55;;;;;;;;;13.00;12.33;;;;;16.08;100.00;101139.31;4825430;29;45761;-85
2022/10/13 04:36:21;;;;;;;;;12.67;10.67;;;;;16.13;100.00;101144.66;4808960;29;45411;-84
2022/10/13 04:38:47;;;;;;;;;10.67;10.67;;;;;16.15;100.00;101146.44;4824977;29;45182;-84
2022/10/13 04:41:14;;;;;;;;;13.00;12.00;;;;;16.21;100.00;101142.84;4818169;29;45452;-84
2022/10/13 04:43:40;;;;;;;;;10.33;9.33;;;;;16.24;100.00;101150.00;4824575;29;44795;-84
2022/10/13 04:46:13;;;;;;;;;10.67;9.00;;;;;16.25;100.00;101143.75;4824566;29;44810;-84
2022/10/13 04:48:40;;;;;;;;;10.67;9.33;;;;;16.26;100.00;101143.75;4824574;29;45068;-84
2022/10/13 04:54:27;;;;;;;;;12.67;11.00;;;;;16.23;100.00;101124.97;4824335;29;45434;-84
2022/10/13 04:56:52;;;;;;;;;13.00;12.67;;;;;16.23;100.00;101138.38;4807917;29;44881;-84
2022/10/13 04:59:17;;;;;;;;;10.67;10.67;;;;;16.11;100.00;101115.16;4823596;29;44915;-84
2022/10/13 05:01:43;;;;;;;;;13.00;13.00;;;;;16.11;100.00;101125.88;4807329;29;45503;-84
2022/10/13 05:04:08;;;;;;;;;12.67;10.00;;;;;16.11;100.00;101133.03;4806984;29;45467;-84
2022/10/13 05:06:36;;;;;;;;;9.00;9.00;;;;;16.02;100.00;101117.88;4824671;29;44718;-84
2022/10/13 05:09:03;;;;;;;;;9.00;9.00;;;;;16.09;100.00;101135.72;4822838;29;45323;-84
2022/10/13 05:11:29;;;;;;;;;13.00;13.00;;;;;16.08;100.00;101139.31;4821843;29;45348;-84
2022/10/13 05:13:56;;;;;;;;;14.00;12.33;;;;;16.05;100.00;101142.00;4822514;29;44789;-84
2022/10/13 05:16:29;;;;;;;;;15.00;12.33;;;;;16.03;100.00;101132.16;4823009;29;45275;-84
2022/10/13 05:18:55;;;;;;;;;10.33;10.33;;;;;15.99;100.00;101128.59;4822122;29;46861;-84
2022/10/13 05:21:26;;;;;;;;;12.00;12.00;;;;;15.93;100.00;101116.09;4807731;29;46353;-84
2022/10/13 05:23:54;;;;;;;;;13.00;11.00;;;;;15.94;100.00;101115.19;4807552;29;44737;-84
2022/10/13 05:26:22;;;;;;;;;10.00;10.00;;;;;15.91;100.00;101120.56;4832740;29;44837;-84
2022/10/13 05:28:48;;;;;;;;;11.00;10.33;;;;;15.87;100.00;101120.56;4805782;29;45547;-83
2022/10/13 05:31:19;;;;;;;;;9.33;9.33;;;;;15.87;100.00;101123.25;4821770;29;45317;-84
2022/10/13 05:33:46;;;;;;;;;7.00;7.00;;;;;15.88;100.00;101119.69;4820911;29;45347;-83
2022/10/13 05:39:34;;;;;;;;;12.33;11.67;;;;;15.80;100.00;101096.44;4825512;29;44949;-84
2022/10/13 05:42:02;;;;;;;;;9.67;9.33;;;;;15.79;100.00;101092.00;4827260;29;45302;-84
2022/10/13 05:44:28;;;;;;;;;11.00;11.00;;;;;15.74;100.00;101083.06;4811049;29;45341;-84
2022/10/13 05:46:54;;;;;;;;;17.00;15.00;;;;;15.78;100.00;101083.94;4825497;29;44874;-84
2022/10/13 05:49:20;;;;;;;;;15.00;10.00;;;;;15.79;100.00;101078.59;4825898;29;45558;-83
2022/10/13 05:51:49;;;;;;;;;12.00;10.00;;;;;15.75;100.00;101071.44;4816902;29;44885;-84
2022/10/13 05:54:21;;;;;;;;;8.33;8.33;;;;;15.88;100.00;101087.50;4809346;29;45590;-84
2022/10/13 05:56:53;;;;;;;;;14.00;12.00;;;;;15.85;100.00;101084.81;4809060;29;44928;-84
2022/10/13 05:59:21;;;;;;;;;10.00;10.00;;;;;15.93;100.00;101096.41;4823403;29;47366;-84
2022/10/13 06:01:47;;;;;;;;;13.33;11.67;;;;;15.93;100.00;101107.16;4823722;29;45488;-84
2022/10/13 06:04:20;;;;;;;;;11.33;11.33;;;;;15.88;100.00;101103.59;4826332;29;45223;-84
2022/10/13 06:06:47;;;;;;;;;8.00;8.00;;;;;15.90;100.00;101104.50;4810201;29;44858;-84
2022/10/13 06:09:14;;;;;;;;;9.67;8.33;;;;;15.87;100.00;101107.16;4809039;29;47035;-83
2022/10/13 06:11:40;;;;;;;;;8.33;8.33;;;;;15.87;100.00;101104.47;4811738;29;44749;-83
2022/10/13 06:14:20;;;;;;;;;8.67;7.00;;;;;15.76;100.00;101094.66;4812263;29;44893;-84
2022/10/13 06:16:45;;;;;;;;;8.00;8.00;;;;;15.80;100.00;101101.81;4809319;29;45863;-84
2022/10/13 06:19:10;;;;;;;;;11.00;8.00;;;;;15.66;100.00;101086.63;4808019;29;47829;-84
2022/10/13 06:21:36;;;;;;;;;7.00;7.00;;;;;15.80;100.00;101100.94;4825008;29;44758;-84
2022/10/13 06:24:02;;;;;;;;;9.67;6.00;;;;;15.70;100.00;101075.88;4808837;29;45641;-84
2022/10/13 06:26:28;;;;;;;;;10.00;9.00;;;;;15.79;100.00;101089.31;4824265;29;45422;-84
2022/10/13 06:28:54;;;;;;;;;12.67;9.67;;;;;15.79;100.00;101099.13;4822450;29;47747;-86
2022/10/13 06:31:19;;;;;;;;;8.00;7.67;;;;;15.77;100.00;101101.84;4807157;29;45660;-85
2022/10/13 06:33:45;;;;;;;;;9.00;8.00;;;;;15.80;100.00;101095.56;4824522;29;45381;-84
2022/10/13 06:36:10;;;;;;;;;8.00;8.00;;;;;15.82;100.00;101098.25;4808081;29;45494;-85
2022/10/13 06:38:36;;;;;;;;;6.33;6.00;;;;;15.76;100.00;101089.31;4805952;29;46646;-84
2022/10/13 06:41:04;;;;;;;;;10.67;7.67;;;;;15.74;100.00;101080.38;4806771;29;45752;-84
2022/10/13 06:43:30;;;;;;;;;14.33;11.33;;;;;15.72;100.00;101075.88;4819639;29;44810;-86
2022/10/13 06:45:58;;;;;;;;;9.00;9.00;;;;;15.55;100.00;101051.75;4823255;29;45364;-84
2022/10/13 06:48:28;;;;;;;;;12.33;12.33;;;;;15.77;100.00;101099.16;4821708;29;47043;-83
2022/10/13 06:50:55;;;;;;;;;10.67;10.33;;;;;15.82;100.00;101108.97;4806732;29;45238;-85
2022/10/13 06:53:20;;;;;;;;;8.67;7.33;;;;;15.76;100.00;101100.03;4809086;29;45442;-85
2022/10/13 06:55:46;;;;;;;;;9.67;9.67;;;;;15.64;100.00;101081.25;4808951;29;45403;-84
2022/10/13 06:58:11;;;;;;;;;13.67;12.00;;;;;15.71;100.00;101074.97;4808693;29;46827;-86
2022/10/13 07:00:39;;;;;;;;;8.00;8.00;;;;;15.63;100.00;101059.78;4824928;29;44731;-84
2022/10/13 07:03:05;;;;;;;;;9.00;9.00;;;;;15.92;100.00;101114.31;4797335;29;45326;-86
2022/10/13 07:05:31;;;;;;;;;10.67;9.67;;;;;15.86;100.00;101100.03;4790080;29;44917;-84
2022/10/13 07:07:57;;;;;;;;;9.33;9.33;;;;;15.87;100.00;101110.72;4790004;29;46897;-84
2022/10/13 07:10:23;;;;;;;;;8.67;8.67;;;;;15.97;100.00;101116.97;4790123;29;44812;-85
2022/10/13 07:12:49;;;;;;;;;9.67;9.67;;;;;15.96;100.00;101116.09;4789631;29;44786;-85
2022/10/13 07:15:23;;;;;;;;;14.00;9.67;;;;;15.89;100.00;101100.00;4806802;29;44862;-84
2022/10/13 07:17:52;;;;;;;;;9.00;8.33;;;;;15.95;100.00;101124.13;4805215;29;47044;-85
2022/10/13 07:20:22;;;;;;;;;7.00;7.00;;;;;15.92;100.00;101127.72;4790423;29;45728;-85
2022/10/13 07:26:15;;;;;;;;;12.33;9.00;;;;;15.88;100.00;101127.75;4823554;29;45417;-85
2022/10/13 07:28:43;;;;;;;;;8.33;8.33;;;;;15.86;100.00;101125.06;4823777;29;45423;-83
2022/10/13 07:31:24;;;;;;;;;11.00;9.00;;;;;15.79;100.00;101109.84;4805635;29;45211;-84
2022/10/13 07:34:03;;;;;;;;;11.00;8.00;;;;;15.77;100.00;101117.00;4792849;29;44790;-85
2022/10/13 07:36:58;;;;;;;;;9.67;9.00;;;;;15.84;100.00;101123.28;4812548;29;45615;-86
2022/10/13 07:39:41;;;;;;;;;10.00;9.67;;;;;15.76;100.00;101100.03;4820284;29;46707;-86
2022/10/13 07:46:35;;;;;;;;;9.67;9.67;;;;;16.09;100.00;101124.09;4770040;29;45227;-86
2022/10/13 07:57:15;;;;;;;;;;;;;;;;;;;;;
2022/10/13 08:20:10;;;;;;;;;;;;;;;;;;;;;
2022/10/13 08:23:46;;;;;;;;;;;;;;;;;;;;;
2022/10/13 08:33:46;;;;;;;;;12.00;9.00;;;;;16.51;100.00;101140.97;4850237;29;45405;-85
2022/10/13 08:44:22;;;;;;;;;;;;;;;;;;;;;
2022/10/13 08:53:55;;;;;;;;;7.00;7.00;;;;;17.18;100.00;101134.38;4766612;29;46091;-84
2022/10/13 08:56:35;;;;;;;;;6.67;6.00;;;;;17.19;100.00;101117.34;4748378;30;45457;-87
2022/10/13 09:13:00;;;;;;;;;5.00;5.00;;;;;17.86;100.00;101107.84;976698;23;45449;-85
2022/10/13 09:23:41;;;;;;;;;;;;;;;;;;;;;
2022/10/13 09:30:21;;;;;;;;;;;;;;;;;;;;;
2022/10/13 09:33:47;;;;;;;;;;;;;;;;;;;;;
2022/10/13 09:53:56;;;;;;;;;8.00;7.00;;;;;18.34;100.00;101118.06;4834091;29;45466;-86
2022/10/13 09:57:10;;;;;;;;;;;;;;;;;;;;;
2022/10/13 10:00:16;;;;;;;;;;;;;;;;;;;;;
2022/10/13 10:03:03;;;;;;;;;14.00;12.67;;;;;18.30;100.00;101117.22;4801123;29;75665;-85
2022/10/13 10:05:54;;;;;;;;;10.00;10.00;;;;;18.30;100.00;101128.00;4807018;29;44806;-85
2022/10/13 10:08:55;;;;;;;;;9.33;9.00;;;;;18.12;100.00;101085.16;4817717;29;45477;-84
2022/10/13 10:12:06;;;;;;;;;9.00;8.67;;;;;18.04;100.00;101070.84;4823877;29;45060;-85
2022/10/13 10:15:35;;;;;;;;;8.33;7.33;;;;;18.31;100.00;101124.38;4821562;29;45288;-86
2022/10/13 10:22:07;;;;;;;;;;;;;;;;;;;;;
2022/10/13 10:25:26;;;;;;;;;;;;;;;;;;;;;
2022/10/13 10:28:35;;;;;;;;;9.00;9.00;;;;;18.48;100.00;101123.28;4738113;30;74374;-85
2022/10/13 10:31:44;;;;;;;;;9.33;9.00;;;;;18.50;100.00;101117.00;4735568;30;44772;-85
2022/10/13 11:29:07;;;;;;;;;14.00;13.00;;;;;18.08;100.00;101051.97;4897400;23;45282;-86
2022/10/13 11:36:27;;;;;;;;;12.00;11.00;;;;;18.25;100.00;101080.50;4821523;29;45170;-88
2022/10/13 11:39:37;;;;;;;;;11.00;11.00;;;;;18.21;100.00;101079.63;4801879;29;45395;-85
2022/10/13 11:42:50;;;;;;;;;;;;;;;;;;;;;
2022/10/13 11:45:42;;;;;;;;;12.67;9.33;;;;;18.05;100.00;101064.56;4819145;29;64543;-87
2022/10/13 13:40:36;;;;;;;;;5.00;5.00;;;;;17.54;100.00;100989.78;4433077;23;46519;-84
2022/10/13 13:43:31;;;;;;;;;5.67;5.67;;;;;17.55;100.00;100975.41;4861057;29;45470;-84
2022/10/13 13:46:34;;;;;;;;;;;;;;;;;;;;;
2022/10/13 13:49:05;;;;;;;;;7.67;7.67;;;;;17.69;100.00;100980.66;4785175;29;65111;-84
2022/10/13 13:51:33;;;;;;;;;6.00;6.00;;;;;17.43;100.00;100948.66;4787470;29;45477;-85
2022/10/13 13:54:01;;;;;;;;;10.00;8.33;;;;;17.39;100.00;100940.66;4788560;29;44806;-85
2022/10/13 13:56:28;;;;;;;;;9.00;8.67;;;;;17.67;100.00;100980.66;4797567;29;44853;-85
2022/10/13 13:58:53;;;;;;;;;9.33;9.33;;;;;17.45;100.00;100942.38;4788746;29;45345;-86
2022/10/13 14:01:19;;;;;;;;;11.00;11.00;;;;;17.54;100.00;100954.81;4804518;29;45653;-85
2022/10/13 14:03:45;;;;;;;;;7.67;7.67;;;;;17.73;100.00;100974.31;4805691;29;45512;-84
2022/10/13 14:06:20;;;;;;;;;11.00;9.67;;;;;17.63;100.00;100956.50;4791807;29;45487;-85
2022/10/13 14:09:29;;;;;;;;;9.67;9.67;;;;;17.70;100.00;100969.00;4782732;29;45448;-86
2022/10/13 14:11:54;;;;;;;;;9.00;9.00;;;;;17.71;100.00;100965.38;4785161;29;47013;-86
2022/10/13 14:14:20;;;;;;;;;12.33;10.00;;;;;17.82;100.00;100967.97;4785029;29;45317;-85
2022/10/13 14:16:46;;;;;;;;;8.67;8.67;;;;;17.83;100.00;100948.19;4783416;29;45411;-84
2022/10/13 14:19:12;;;;;;;;;7.33;6.33;;;;;17.75;100.00;100926.75;4787106;29;45486;-85
2022/10/13 14:21:38;;;;;;;;;8.67;8.67;;;;;17.95;100.00;100959.72;4786532;29;46944;-84
2022/10/13 14:24:04;;;;;;;;;9.00;7.67;;;;;17.74;100.00;100931.25;4787769;29;45395;-85
2022/10/13 14:26:30;;;;;;;;;7.67;7.67;;;;;17.73;100.00;100932.19;4828480;29;45458;-86
2022/10/13 14:28:57;;;;;;;;;7.00;7.00;;;;;17.92;100.00;100962.47;4847973;29;45077;-85
2022/10/13 14:31:23;;;;;;;;;11.33;10.33;;;;;17.89;100.00;100943.66;4842831;29;45294;-83
2022/10/13 14:33:53;;;;;;;;;8.67;8.67;;;;;17.94;100.00;100940.94;4838082;29;44726;-84
2022/10/13 14:36:19;;;;;;;;;9.00;9.00;;;;;17.87;100.00;100934.72;4839625;29;44810;-84
2022/10/13 14:38:54;;;;;;;;;;;;;;;;;;;;;
2022/10/13 14:41:22;;;;;;;;;10.33;9.00;;;;;17.83;100.00;100927.59;4847293;29;74879;-85
2022/10/13 14:43:52;;;;;;;;;8.67;8.67;;;;;17.83;100.00;100937.44;4839314;29;45403;-85
2022/10/13 14:46:17;;;;;;;;;8.00;7.33;;;;;17.86;100.00;100949.09;4841034;29;44886;-85
2022/10/13 14:48:43;;;;;;;;;8.00;8.00;;;;;17.83;100.00;100949.13;4838759;29;45525;-85
2022/10/13 14:51:10;;;;;;;;;6.00;6.00;;;;;17.80;100.00;100947.34;4840520;29;45929;-84
2022/10/13 14:53:38;;;;;;;;;8.67;8.00;;;;;17.75;100.00;100941.13;4839905;29;45384;-84
2022/10/13 14:56:21;;;;;;;;;8.33;8.33;;;;;17.70;100.00;100942.97;4838719;29;45334;-83
2022/10/13 14:58:47;;;;;;;;;11.00;8.00;;;;;17.60;100.00;100946.69;4839061;29;45713;-85
2022/10/13 15:01:15;;;;;;;;;9.67;7.67;;;;;17.50;100.00;100936.94;4835490;29;46675;-85
2022/10/13 15:03:42;;;;;;;;;8.00;6.67;;;;;17.56;100.00;100945.81;4829584;29;44844;-86
2022/10/13 15:06:13;;;;;;;;;12.00;10.33;;;;;17.51;100.00;100942.31;4820806;29;44842;-86
2022/10/13 15:08:39;;;;;;;;;8.00;8.00;;;;;17.53;100.00;100939.56;4819771;29;45103;-83
2022/10/13 15:11:05;;;;;;;;;9.00;8.33;;;;;17.47;100.00;100926.22;4836109;29;45364;-85
2022/10/13 15:13:31;;;;;;;;;8.67;7.33;;;;;17.50;100.00;100923.50;4832387;29;45370;-85
2022/10/13 15:16:02;;;;;;;;;11.00;9.00;;;;;17.45;100.00;100912.81;4839274;29;45569;-85
2022/10/13 15:18:33;;;;;;;;;10.33;8.67;;;;;17.59;100.00;100915.31;4826804;29;44881;-85
2022/10/13 15:20:59;;;;;;;;;8.67;8.67;;;;;17.65;100.00;100923.28;4853281;29;47213;-85
2022/10/13 15:23:26;;;;;;;;;9.00;9.00;;;;;17.57;100.00;100914.44;4839657;29;44794;-85
2022/10/13 15:26:10;;;;;;;;;7.33;7.33;;;;;17.67;100.00;100923.28;4838983;29;45376;-85
2022/10/13 15:28:39;;;;;;;;;9.67;7.33;;;;;17.55;100.00;100911.78;4838682;29;45452;-85
2022/10/13 15:31:05;;;;;;;;;9.00;9.00;;;;;17.54;100.00;100906.41;4835658;29;47202;-85
2022/10/13 15:33:31;;;;;;;;;10.00;10.00;;;;;17.53;100.00;100918.06;4811888;29;44755;-87
2022/10/13 15:35:59;;;;;;;;;10.33;10.33;;;;;17.42;100.00;100910.13;4804033;29;44874;-85
2022/10/13 15:38:25;;;;;;;;;11.67;11.67;;;;;17.45;100.00;100918.19;4809636;29;45391;-85
2022/10/13 15:40:51;;;;;;;;;13.00;11.00;;;;;17.42;100.00;100907.44;4840041;29;45378;-85
2022/10/13 15:43:18;;;;;;;;;9.67;9.33;;;;;17.45;100.00;100918.19;4840894;29;45371;-87
2022/10/13 15:46:05;;;;;;;;;12.33;9.00;;;;;17.39;100.00;100920.91;4847958;29;45456;-84
2022/10/13 15:48:32;;;;;;;;;9.67;9.67;;;;;17.17;100.00;100882.66;4839874;29;45355;-85
2022/10/13 15:50:57;;;;;;;;;9.00;9.00;;;;;17.35;100.00;100917.38;4840730;29;45304;-85
2022/10/13 15:53:24;;;;;;;;;11.33;10.00;;;;;17.27;100.00;100900.47;4840564;29;45461;-85
2022/10/13 15:55:49;;;;;;;;;9.00;8.00;;;;;17.33;100.00;100918.28;4838884;29;45443;-85
2022/10/13 15:58:16;;;;;;;;;13.33;9.67;;;;;17.22;100.00;100909.47;4839205;29;45398;-85
2022/10/13 16:01:34;;;;;;;;;10.00;10.00;;;;;17.13;100.00;100911.34;4836659;29;46834;-85
2022/10/13 16:04:00;;;;;;;;;9.67;9.67;;;;;17.13;100.00;100907.78;4821960;29;45284;-85
2022/10/13 16:06:26;;;;;;;;;14.33;12.00;;;;;17.11;100.00;100901.53;4838951;29;45436;-85
2022/10/13 16:08:52;;;;;;;;;11.67;11.67;;;;;17.15;100.00;100901.47;4839418;29;45442;-84
2022/10/13 16:11:21;;;;;;;;;10.00;8.00;;;;;16.95;100.00;100869.44;4837371;29;47418;-85
2022/10/13 16:13:50;;;;;;;;;9.33;9.33;;;;;17.03;100.00;100888.16;4851779;29;45909;-84
2022/10/13 16:16:17;;;;;;;;;14.33;12.00;;;;;16.95;100.00;100884.66;4838720;29;44801;-85
2022/10/13 16:18:52;;;;;;;;;14.00;10.00;;;;;16.82;100.00;100881.19;4839176;29;45524;-84
2022/10/13 16:21:24;;;;;;;;;11.67;11.67;;;;;16.83;100.00;100893.72;4845123;29;45642;-84
2022/10/13 16:23:51;;;;;;;;;14.00;13.33;;;;;16.69;100.00;100874.13;4837066;29;45752;-85
2022/10/13 16:26:17;;;;;;;;;12.67;11.00;;;;;16.73;100.00;100883.94;4834734;29;45381;-86
2022/10/13 16:28:46;;;;;;;;;11.00;10.67;;;;;16.65;100.00;100869.69;4805520;29;45336;-84
2022/10/13 16:31:14;;;;;;;;;9.33;9.33;;;;;16.59;100.00;100871.50;4818713;29;47265;-84
2022/10/13 16:33:41;;;;;;;;;11.67;11.67;;;;;16.55;100.00;100872.44;4853443;29;45429;-86
2022/10/13 16:36:10;;;;;;;;;11.33;10.67;;;;;16.66;100.00;100890.25;4837135;29;45501;-85